Terminal Aerodrome Forecast
Issued by NWS

Home | Current Version | Previous Version | Text Only | Print | Product List | Glossary Off
Versions: 1 2 3 4 5 6 7 8 9 10 11 12 13 14 15 16 17 18 19 20 21 22 23 24 25 26

782
FTUS43 KLOT 061830 AAA
TAFDPA
TAF AMD
KDPA 061830Z 0619/0718 25011KT P6SM SCT020
     FM070000 21007KT P6SM FEW015 BKN200
     FM070700 22009KT P6SM OVC080
     FM071300 23013KT P6SM SCT100 BKN200
     FM071600 24013G21KT P6SM SCT100 BKN180=

USA.gov is the U.S. government's official web portal to all federal, state and local government web resources and services.